Shinei Maru — JM6456 — position and weather

sailwx.info

Track history (hours):
 
Tides and Currents Weather Stations Pressure Air Temp Water Temp Dewpoint Dewpoint Depression Visibility Wind Speed Wind Dir Waves Ship Positions

Shinei Maru

Last reported at 2018-Apr-24 12:29 UTC. Time now 2018-Apr-24 12:49 UTC.
Position N 34°39' E 135°28'.

Length 41 m.

Type: Tanker. MMSI: 431008799.

Date/timePositionNaut miles runAvg speedWind from/ knotsBaromVisibWave heightAir tempDewpointWater temp
2018-Apr-24 12:29N 34°39' E 135°28'0 0.0
2018-Apr-24 11:56N 34°39' E 135°28'0 0.0
2018-Apr-24 11:29N 34°39' E 135°28'0 0.0
2018-Apr-24 10:59N 34°39' E 135°28'0 0.0
2018-Apr-24 10:29N 34°39' E 135°28'0 0.0
2018-Apr-24 09:59N 34°39' E 135°28'0 0.0
2018-Apr-24 09:29N 34°39' E 135°28'0 0.0
2018-Apr-24 08:59N 34°39' E 135°28'0 0.0
2018-Apr-24 08:29N 34°39' E 135°28'0 0.0
2018-Apr-24 07:59N 34°39' E 135°28'0 0.0
2018-Apr-24 07:29N 34°39' E 135°28'0 0.0
2018-Apr-24 06:59N 34°39' E 135°28'0 0.0
2018-Apr-24 06:29N 34°39' E 135°28'0 0.0
2018-Apr-24 05:59N 34°39' E 135°28'0 0.0
2018-Apr-24 05:29N 34°39' E 135°28'1 1.6
2018-Apr-24 05:00N 34°38' E 135°27'4 8.1
2018-Apr-24 04:30N 34°35' E 135°24'2 4.6
2018-Apr-24 03:59N 34°33' E 135°26'0 0.0
2018-Apr-24 03:29N 34°33' E 135°26'0 0.0
2018-Apr-24 02:59N 34°33' E 135°26'0 0.9
2018-Apr-24 02:28N 34°33' E 135°25'3 5.5
2018-Apr-24 02:00N 34°35' E 135°24'3 5.8
2018-Apr-24 01:29N 34°38' E 135°25'0 0.0
2018-Apr-24 00:59N 34°38' E 135°25'0 0.0
2018-Apr-24 00:29N 34°38' E 135°25'1 1.5
2018-Apr-24 00:00N 34°37' E 135°25'3 6.1
2018-Apr-23 23:29N 34°34' E 135°26'0 0.0
2018-Apr-23 22:59N 34°34' E 135°26'0 0.2
2018-Apr-23 22:30N 34°34' E 135°26'1 2.5
2018-Apr-23 22:00N 34°36' E 135°25'4 7.2
2018-Apr-23 21:30N 34°39' E 135°27'0 0.7
2018-Apr-23 20:59N 34°39' E 135°28'0 0.0
2018-Apr-23 20:29N 34°39' E 135°28'0 0.0
2018-Apr-23 19:59N 34°39' E 135°28'0 0.0
2018-Apr-23 19:29N 34°39' E 135°28'0 0.0
2018-Apr-23 18:56N 34°39' E 135°28'0 0.0
2018-Apr-23 18:29N 34°39' E 135°28'0 0.0
2018-Apr-23 17:59N 34°39' E 135°28'0 0.0
2018-Apr-23 17:29N 34°39' E 135°28'0 0.0
2018-Apr-23 16:59N 34°39' E 135°28'0 0.0
2018-Apr-23 16:29N 34°39' E 135°28'0 0.0
2018-Apr-23 15:59N 34°39' E 135°28'0 0.0
2018-Apr-23 15:29N 34°39' E 135°28'0 0.0
2018-Apr-23 14:59N 34°39' E 135°28'0 0.0
2018-Apr-23 14:29N 34°39' E 135°28'0 0.0
2018-Apr-23 13:59N 34°39' E 135°28'0 0.0
2018-Apr-23 13:29N 34°39' E 135°28'0 0.0
2018-Apr-23 12:59N 34°39' E 135°28'0 0.0
2018-Apr-23 12:29N 34°39' E 135°28'0 0.0
2018-Apr-23 11:59N 34°39' E 135°28'0 0.0
2018-Apr-23 11:29N 34°39' E 135°28'0 0.0
2018-Apr-23 10:59N 34°39' E 135°28'0 0.0
2018-Apr-23 10:29N 34°39' E 135°28'0 0.0
2018-Apr-23 09:59N 34°39' E 135°28'0 0.0
2018-Apr-23 09:29N 34°39' E 135°28'0 0.0
2018-Apr-23 08:59N 34°39' E 135°28'0 0.0
2018-Apr-23 08:29N 34°39' E 135°28'0 0.0
2018-Apr-23 07:59N 34°39' E 135°28'0 0.0
2018-Apr-23 07:29N 34°39' E 135°28'0 0.0
2018-Apr-23 06:59N 34°39' E 135°28'0 0.0
2018-Apr-23 06:29N 34°39' E 135°28'0 0.0
2018-Apr-23 05:59N 34°39' E 135°28'0 0.0
2018-Apr-23 05:29N 34°39' E 135°28'0 0.0
2018-Apr-23 04:59N 34°39' E 135°28'0 0.0
2018-Apr-23 04:29N 34°39' E 135°28'0 0.0
2018-Apr-23 03:59N 34°39' E 135°28'0 0.0
2018-Apr-23 03:26N 34°39' E 135°28'0 0.0
2018-Apr-23 02:59N 34°39' E 135°28'0 0.8
2018-Apr-23 02:30N 34°39' E 135°27'5 9.4
2018-Apr-23 02:00N 34°38' E 135°21'4 8.0
2018-Apr-23 01:28N 34°37' E 135°17'0 0.0
2018-Apr-23 00:58N 34°37' E 135°17'0 0.1
2018-Apr-23 00:28N 34°37' E 135°17'0 0.0
2018-Apr-22 23:58N 34°37' E 135°17'0 0.7
2018-Apr-22 23:30N 34°37' E 135°16'0 0.0
2018-Apr-22 23:00N 34°37' E 135°16'0 0.0
2018-Apr-22 22:29N 34°37' E 135°16'3 6.8
2018-Apr-22 22:00N 34°38' E 135°20'5 9.3
2018-Apr-22 21:30N 34°39' E 135°25'2 3.3
2018-Apr-22 20:58N 34°39' E 135°28'0 0.0
2018-Apr-22 20:28N 34°39' E 135°28'0 0.0
2018-Apr-22 19:58N 34°39' E 135°28'0 0.0
2018-Apr-22 19:28N 34°39' E 135°28'0 0.0
2018-Apr-22 18:58N 34°39' E 135°28'0 0.0
2018-Apr-22 18:28N 34°39' E 135°28'0 0.0
2018-Apr-22 17:58N 34°39' E 135°28'0 0.0
2018-Apr-22 17:28N 34°39' E 135°28'0 0.0
2018-Apr-22 16:58N 34°39' E 135°28'0 0.0
2018-Apr-22 16:28N 34°39' E 135°28'0 0.0
2018-Apr-22 15:58N 34°39' E 135°28'0 0.0
2018-Apr-22 15:28N 34°39' E 135°28'0 0.0
2018-Apr-22 14:58N 34°39' E 135°28'0 0.0
2018-Apr-22 14:28N 34°39' E 135°28'0 0.0
2018-Apr-22 13:58N 34°39' E 135°28'0 0.0
2018-Apr-22 13:28N 34°39' E 135°28'0 0.0
2018-Apr-22 12:58N 34°39' E 135°28'0 0.0
2018-Apr-22 12:28N 34°39' E 135°28'0 0.0
2018-Apr-22 11:58N 34°39' E 135°28'0 0.0
2018-Apr-22 11:28N 34°39' E 135°28'0 0.0
2018-Apr-22 10:58N 34°39' E 135°28'0 0.0
2018-Apr-22 10:28N 34°39' E 135°28'0 0.0
2018-Apr-22 09:58N 34°39' E 135°28'0 0.0
2018-Apr-22 09:28N 34°39' E 135°28'0 0.0
2018-Apr-22 08:58N 34°39' E 135°28'0 0.0
2018-Apr-22 08:28N 34°39' E 135°28'0 0.0
2018-Apr-22 07:58N 34°39' E 135°28'0 0.0
2018-Apr-22 07:28N 34°39' E 135°28'0 0.0
2018-Apr-22 06:58N 34°39' E 135°28'0 0.0
2018-Apr-22 06:28N 34°39' E 135°28'0 0.0
2018-Apr-22 05:58N 34°39' E 135°28'0 0.0
2018-Apr-22 05:28N 34°39' E 135°28'0 0.0
2018-Apr-22 04:58N 34°39' E 135°28'0 0.0
2018-Apr-22 04:28N 34°39' E 135°28'0 0.0
2018-Apr-22 03:58N 34°39' E 135°28'0 0.0
2018-Apr-22 03:28N 34°39' E 135°28'0 0.0
2018-Apr-22 02:58N 34°39' E 135°28'0 0.0
2018-Apr-22 02:28N 34°39' E 135°28'0 0.0
2018-Apr-22 01:58N 34°39' E 135°28'0 0.0
2018-Apr-22 01:28N 34°39' E 135°28'0 0.0
2018-Apr-22 00:58N 34°39' E 135°28'0 0.0
2018-Apr-22 00:28N 34°39' E 135°28'0 0.0
2018-Apr-22 00:00N 34°39' E 135°28'3 6.1
2018-Apr-21 23:30N 34°36' E 135°25'2 4.0
2018-Apr-21 22:59N 34°34' E 135°26'0 0.2
2018-Apr-21 22:30N 34°34' E 135°26'2 4.7
2018-Apr-21 22:00N 34°36' E 135°24'4 8.7
2018-Apr-21 21:30N 34°37' E 135°19'5 9.5
2018-Apr-21 21:00N 34°39' E 135°13'2 4.4
2018-Apr-21 20:28N 34°41' E 135°12'0 1.0
2018-Apr-21 20:01N 34°40' E 135°12'2 4.4
2018-Apr-21 19:30N 34°39' E 135°14'5 9.3
2018-Apr-21 19:00N 34°38' E 135°19'5 9.4
2018-Apr-21 18:30N 34°39' E 135°25'2 4.1
2018-Apr-21 17:59N 34°39' E 135°28'0 0.0
2018-Apr-21 17:29N 34°39' E 135°28'0 0.0
2018-Apr-21 16:56N 34°39' E 135°28'0 0.0
2018-Apr-21 16:29N 34°39' E 135°28'0 0.0
2018-Apr-21 15:59N 34°39' E 135°28'0 0.0
2018-Apr-21 15:29N 34°39' E 135°28'0 0.0
2018-Apr-21 14:59N 34°39' E 135°28'0 0.0
2018-Apr-21 14:29N 34°39' E 135°28'0 0.0
2018-Apr-21 13:59N 34°39' E 135°28'0 0.0
2018-Apr-21 13:29N 34°39' E 135°28'0 0.0
2018-Apr-21 12:59N 34°39' E 135°28'0 0.0
2018-Apr-21 12:29N 34°39' E 135°28'0 0.0
2018-Apr-21 11:59N 34°39' E 135°28'0 0.0
2018-Apr-21 11:29N 34°39' E 135°28'0 0.0
2018-Apr-21 10:59N 34°39' E 135°28'0 0.0
2018-Apr-21 10:29N 34°39' E 135°28'0 0.0
2018-Apr-21 09:59N 34°39' E 135°28'0 0.0
2018-Apr-21 09:29N 34°39' E 135°28'0 0.0
2018-Apr-21 08:59N 34°39' E 135°28'0 0.0
2018-Apr-21 08:29N 34°39' E 135°28'0 0.0
2018-Apr-21 07:59N 34°39' E 135°28'0 0.0
2018-Apr-21 07:26N 34°39' E 135°28'0 0.0
2018-Apr-21 06:59N 34°39' E 135°28'0 0.0
2018-Apr-21 06:29N 34°39' E 135°28'0 0.0
2018-Apr-21 05:59N 34°39' E 135°28'0 0.0
2018-Apr-21 05:29N 34°39' E 135°28'0 0.0
2018-Apr-21 04:59N 34°39' E 135°28'0 0.0
2018-Apr-21 04:29N 34°39' E 135°28'0 0.0
2018-Apr-21 03:59N 34°39' E 135°28'0 0.0
2018-Apr-21 03:29N 34°39' E 135°28'0 0.0
2018-Apr-21 02:59N 34°39' E 135°28'0 0.0
2018-Apr-21 02:29N 34°39' E 135°28'0 0.0
2018-Apr-21 01:59N 34°39' E 135°28'0 0.0
2018-Apr-21 01:29N 34°39' E 135°28'0 0.0
2018-Apr-21 00:59N 34°39' E 135°28'0 0.0
2018-Apr-21 00:29N 34°39' E 135°28'0 0.0
2018-Apr-20 23:59N 34°39' E 135°28'0 0.0
2018-Apr-20 23:29N 34°39' E 135°28'0 0.0
2018-Apr-20 22:59N 34°39' E 135°28'0 0.0
2018-Apr-20 22:29N 34°39' E 135°28'0 0.0
2018-Apr-20 21:59N 34°39' E 135°28'0 0.0
2018-Apr-20 21:29N 34°39' E 135°28'0 0.0
2018-Apr-20 20:59N 34°39' E 135°28'0 0.0
2018-Apr-20 20:29N 34°39' E 135°28'0 0.0
2018-Apr-20 19:59N 34°39' E 135°28'0 0.0
2018-Apr-20 19:29N 34°39' E 135°28'0 0.0
2018-Apr-20 18:56N 34°39' E 135°28'0 0.0
2018-Apr-20 18:29N 34°39' E 135°28'0 0.0
2018-Apr-20 17:59N 34°39' E 135°28'0 0.0
2018-Apr-20 17:29N 34°39' E 135°28'0 0.0
2018-Apr-20 16:59N 34°39' E 135°28'0 0.0
2018-Apr-20 16:29N 34°39' E 135°28'0 0.0
2018-Apr-20 15:59N 34°39' E 135°28'0 0.0
2018-Apr-20 15:29N 34°39' E 135°28'0 0.0
2018-Apr-20 14:59N 34°39' E 135°28'0 0.0
2018-Apr-20 14:29N 34°39' E 135°28'0 0.0
2018-Apr-20 13:59N 34°39' E 135°28'0 0.0
2018-Apr-20 13:29N 34°39' E 135°28'0 0.0
2018-Apr-20 12:59N 34°39' E 135°28'0 0.0
2018-Apr-20 12:29N 34°39' E 135°28'0 0.0
2018-Apr-20 11:59N 34°39' E 135°28'0 0.0
2018-Apr-20 11:29N 34°39' E 135°28'0 0.0
2018-Apr-20 10:59N 34°39' E 135°28'0 0.0
2018-Apr-20 10:29N 34°39' E 135°28'0 0.0
2018-Apr-20 09:59N 34°39' E 135°28'0 0.0
2018-Apr-20 09:29N 34°39' E 135°28'0 0.0
2018-Apr-20 08:59N 34°39' E 135°28'0 0.0
2018-Apr-20 08:29N 34°39' E 135°28'0 0.1
2018-Apr-20 08:00N 34°39' E 135°28'1 1.8
2018-Apr-20 07:30N 34°38' E 135°27'4 7.7
2018-Apr-20 07:00N 34°34' E 135°26'0 0.2
2018-Apr-20 06:29N 34°34' E 135°26'0 0.0
2018-Apr-20 05:59N 34°34' E 135°26'0 0.0
2018-Apr-20 05:27N 34°34' E 135°26'4 8.5
2018-Apr-20 05:00N 34°38' E 135°25'0 0.4
2018-Apr-20 04:30N 34°38' E 135°25'0 0.0
2018-Apr-20 04:00N 34°38' E 135°25'0 0.0
2018-Apr-20 03:30N 34°38' E 135°25'3 6.6
2018-Apr-20 03:00N 34°35' E 135°24'2 4.4
2018-Apr-20 02:30N 34°33' E 135°26'0 0.0
2018-Apr-20 02:00N 34°33' E 135°26'0 0.0
2018-Apr-20 01:30N 34°33' E 135°26'3 5.5
2018-Apr-20 01:01N 34°35' E 135°24'3 5.6
2018-Apr-20 00:29N 34°38' E 135°24'0 0.0
2018-Apr-19 23:59N 34°38' E 135°24'0 0.1
2018-Apr-19 23:29N 34°38' E 135°25'0 0.1
2018-Apr-19 23:00N 34°38' E 135°25'1 1.6
2018-Apr-19 22:30N 34°38' E 135°24'3 6.2
2018-Apr-19 22:00N 34°39' E 135°27'0 0.5
2018-Apr-19 21:29N 34°39' E 135°28'0 0.0
2018-Apr-19 20:59N 34°39' E 135°28'0 0.0
2018-Apr-19 20:29N 34°39' E 135°28'0 0.0
2018-Apr-19 19:59N 34°39' E 135°28'0 0.0
2018-Apr-19 19:30N 34°39' E 135°28'0 0.0
2018-Apr-19 19:00N 34°39' E 135°28'0 0.0
2018-Apr-19 18:30N 34°39' E 135°28'0 0.0
2018-Apr-19 18:00N 34°39' E 135°28'0 0.0
2018-Apr-19 17:30N 34°39' E 135°28'0 0.0
2018-Apr-19 17:00N 34°39' E 135°28'0 0.0
2018-Apr-19 16:30N 34°39' E 135°28'0 0.0
2018-Apr-19 16:00N 34°39' E 135°28'0 0.0
2018-Apr-19 15:30N 34°39' E 135°28'0 0.0
2018-Apr-19 14:57N 34°39' E 135°28'0 0.0
2018-Apr-19 14:30N 34°39' E 135°28'0 0.0
2018-Apr-19 14:00N 34°39' E 135°28'0 0.0
2018-Apr-19 13:30N 34°39' E 135°28'0 0.0
2018-Apr-19 13:00N 34°39' E 135°28'0 0.0
2018-Apr-19 12:30N 34°39' E 135°28'0 0.0
2018-Apr-19 12:00N 34°39' E 135°28'0 0.0
2018-Apr-19 11:30N 34°39' E 135°28'0 0.0
2018-Apr-19 11:00N 34°39' E 135°28'0 0.0
2018-Apr-19 10:30N 34°39' E 135°28'0 0.0
2018-Apr-19 10:00N 34°39' E 135°28'0 0.0
2018-Apr-19 09:30N 34°39' E 135°28'0 0.0
2018-Apr-19 09:00N 34°39' E 135°28'0 0.0
2018-Apr-19 08:30N 34°39' E 135°28'0 0.0
2018-Apr-19 08:00N 34°39' E 135°28'0 0.0
2018-Apr-19 07:30N 34°39' E 135°28'0 0.0
2018-Apr-19 07:00N 34°39' E 135°28'0 0.0
2018-Apr-19 06:30N 34°39' E 135°28'0 0.0
2018-Apr-19 06:00N 34°39' E 135°28'0 0.0
2018-Apr-19 05:27N 34°39' E 135°28'0 0.0
2018-Apr-19 05:00N 34°39' E 135°28'0 0.0
2018-Apr-19 04:30N 34°39' E 135°28'0 0.0
2018-Apr-19 04:00N 34°39' E 135°28'0 0.0
2018-Apr-19 03:30N 34°39' E 135°28'2 3.6
2018-Apr-19 03:00N 34°37' E 135°26'4 8.0
2018-Apr-19 02:31N 34°34' E 135°24'2 4.2
2018-Apr-19 01:59N 34°33' E 135°27'0 0.6
2018-Apr-19 01:29N 34°33' E 135°27'0 0.6
2018-Apr-19 00:58N 34°33' E 135°27'0 0.4
2018-Apr-19 00:30N 34°33' E 135°27'3 6.0
2018-Apr-19 00:00N 34°35' E 135°24'2 3.5
2018-Apr-18 23:30N 34°34' E 135°26'1 1.2
2018-Apr-18 23:00N 34°35' E 135°25'4 8.0
2018-Apr-18 22:30N 34°39' E 135°27'0 0.5
2018-Apr-18 22:00N 34°39' E 135°27'0 0.8
2018-Apr-18 21:30N 34°39' E 135°28'0 0.0
2018-Apr-18 20:59N 34°39' E 135°28'0 0.0
2018-Apr-18 20:29N 34°39' E 135°28'0 0.0
2018-Apr-18 19:59N 34°39' E 135°28'0 0.0
2018-Apr-18 19:29N 34°39' E 135°28'0 0.0
2018-Apr-18 18:59N 34°39' E 135°28'0 0.0
2018-Apr-18 18:29N 34°39' E 135°28'0 0.0
2018-Apr-18 17:59N 34°39' E 135°28'0 0.0
2018-Apr-18 17:29N 34°39' E 135°28'0 0.0
2018-Apr-18 16:59N 34°39' E 135°28'0 0.0
2018-Apr-18 16:29N 34°39' E 135°28'0 0.0
2018-Apr-18 15:56N 34°39' E 135°28'0 0.0
2018-Apr-18 15:29N 34°39' E 135°28'0 0.0
2018-Apr-18 14:59N 34°39' E 135°28'0 0.0
2018-Apr-18 14:29N 34°39' E 135°28'0 0.0
2018-Apr-18 13:59N 34°39' E 135°28'0 0.0
2018-Apr-18 13:29N 34°39' E 135°28'0 0.0
2018-Apr-18 12:59N 34°39' E 135°28'0 0.0
2018-Apr-18 12:29N 34°39' E 135°28'0 0.0
2018-Apr-18 11:56N 34°39' E 135°28'0 0.0
2018-Apr-18 11:29N 34°39' E 135°28'0 0.0
2018-Apr-18 10:59N 34°39' E 135°28'0 0.0
2018-Apr-18 10:26N 34°39' E 135°28'0 0.0
2018-Apr-18 09:59N 34°39' E 135°28'0 0.0
2018-Apr-18 09:26N 34°39' E 135°28'0 0.0
2018-Apr-18 08:59N 34°39' E 135°28'0 0.0
2018-Apr-18 08:29N 34°39' E 135°28'0 0.0
2018-Apr-18 07:59N 34°39' E 135°28'0 0.0
2018-Apr-18 07:26N 34°39' E 135°28'0 0.0
2018-Apr-18 06:59N 34°39' E 135°28'0 0.0
2018-Apr-18 06:29N 34°39' E 135°28'0 0.0
2018-Apr-18 05:59N 34°39' E 135°28'0 0.0
2018-Apr-18 05:29N 34°39' E 135°28'0 0.0
2018-Apr-18 04:59N 34°39' E 135°28'0 0.0
2018-Apr-18 04:29N 34°39' E 135°28'0 0.0
2018-Apr-18 03:59N 34°39' E 135°28'0 0.0
2018-Apr-18 03:29N 34°39' E 135°28'0 0.0
2018-Apr-18 02:59N 34°39' E 135°28'0 0.4
2018-Apr-18 02:30N 34°38' E 135°28'0 0.0
2018-Apr-18 02:00N 34°38' E 135°28'0 0.1
2018-Apr-18 01:29N 34°39' E 135°28'0 0.3
2018-Apr-18 00:59N 34°39' E 135°28'0 0.0
2018-Apr-18 00:29N 34°39' E 135°28'0 0.0
2018-Apr-17 23:59N 34°39' E 135°28'0 0.0
2018-Apr-17 23:29N 34°39' E 135°28'0 0.0
2018-Apr-17 22:54N 34°39' E 135°28'0 0.0
2018-Apr-17 22:30N 34°39' E 135°28'0 0.0
2018-Apr-17 22:00N 34°39' E 135°28'0 0.0
2018-Apr-17 21:30N 34°39' E 135°28'0 0.0
2018-Apr-17 21:00N 34°39' E 135°28'0 0.0
2018-Apr-17 20:21N 34°39' E 135°28'0 0.0
2018-Apr-17 20:00N 34°39' E 135°28'0 0.0
2018-Apr-17 19:30N 34°39' E 135°28'0 0.0
2018-Apr-17 19:00N 34°39' E 135°28'0 0.0
2018-Apr-17 18:30N 34°39' E 135°28'0 0.0
2018-Apr-17 18:00N 34°39' E 135°28'0 0.0
2018-Apr-17 17:30N 34°39' E 135°28'0 0.0
2018-Apr-17 17:00N 34°39' E 135°28'0 0.0
2018-Apr-17 16:30N 34°39' E 135°28'0 0.0
2018-Apr-17 16:00N 34°39' E 135°28'0 0.0
2018-Apr-17 15:30N 34°39' E 135°28'0 0.0
2018-Apr-17 15:00N 34°39' E 135°28'0 0.0
2018-Apr-17 14:30N 34°39' E 135°28'0 0.0
2018-Apr-17 14:00N 34°39' E 135°28'0 0.0
2018-Apr-17 13:30N 34°39' E 135°28'0 0.0
2018-Apr-17 13:00N 34°39' E 135°28'0 0.0
2018-Apr-17 12:30N 34°39' E 135°28'0 0.0
2018-Apr-17 11:57N 34°39' E 135°28'0 0.0
2018-Apr-17 11:24N 34°39' E 135°28'0 0.0
2018-Apr-17 11:00N 34°39' E 135°28'0 0.0
2018-Apr-17 10:30N 34°39' E 135°28'0 0.0
2018-Apr-17 10:00N 34°39' E 135°28'0 0.0
2018-Apr-17 09:30N 34°39' E 135°28'0 0.0
2018-Apr-17 09:00N 34°39' E 135°28'0 0.0
2018-Apr-17 08:30N 34°39' E 135°28'0 0.0
2018-Apr-17 08:00N 34°39' E 135°28'0 0.0
2018-Apr-17 07:30N 34°39' E 135°28'0 0.0
2018-Apr-17 07:00N 34°39' E 135°28'0 0.0
2018-Apr-17 06:27N 34°39' E 135°28'0 0.0
2018-Apr-17 06:00N 34°39' E 135°28'0 0.0
2018-Apr-17 05:30N 34°39' E 135°28'0 0.0
2018-Apr-17 05:00N 34°39' E 135°28'0 0.0
2018-Apr-17 04:30N 34°39' E 135°28'0 0.0
2018-Apr-17 04:00N 34°39' E 135°28'0 0.0
2018-Apr-17 03:27N 34°39' E 135°28'0 0.0
2018-Apr-17 03:00N 34°39' E 135°28'0 0.0
2018-Apr-17 02:30N 34°39' E 135°28'0 0.0
2018-Apr-17 02:00N 34°39' E 135°28'1 2.4
2018-Apr-17 01:30N 34°38' E 135°27'4 7.6
2018-Apr-17 01:00N 34°35' E 135°23'0 0.4
2018-Apr-17 00:29N 34°35' E 135°23'0 0.0
2018-Apr-16 23:59N 34°35' E 135°23'1 2.8
2018-Apr-16 23:30N 34°36' E 135°24'4 7.4
2018-Apr-16 23:00N 34°39' E 135°27'0 0.7
2018-Apr-16 22:28N 34°39' E 135°28'0 0.0
2018-Apr-16 21:58N 34°39' E 135°28'0 0.0
2018-Apr-16 21:28N 34°39' E 135°28'0 0.0
2018-Apr-16 20:58N 34°39' E 135°28'0 0.0
2018-Apr-16 20:28N 34°39' E 135°28'0 0.0
2018-Apr-16 19:58N 34°39' E 135°28'0 0.0
2018-Apr-16 19:28N 34°39' E 135°28'0 0.0
2018-Apr-16 18:58N 34°39' E 135°28'0 0.0
2018-Apr-16 18:28N 34°39' E 135°28'0 0.0
2018-Apr-16 17:58N 34°39' E 135°28'0 0.0
2018-Apr-16 17:28N 34°39' E 135°28'0 0.0
2018-Apr-16 16:58N 34°39' E 135°28'0 0.0
2018-Apr-16 16:25N 34°39' E 135°28'0 0.0
2018-Apr-16 15:58N 34°39' E 135°28'0 0.0
2018-Apr-16 15:28N 34°39' E 135°28'0 0.0
2018-Apr-16 14:58N 34°39' E 135°28'0 0.0
2018-Apr-16 14:28N 34°39' E 135°28'0 0.0
2018-Apr-16 13:55N 34°39' E 135°28'0 0.0
2018-Apr-16 13:28N 34°39' E 135°28'0 0.0
2018-Apr-16 12:58N 34°39' E 135°28'0 0.0
2018-Apr-16 12:28N 34°39' E 135°28'0 0.0
2018-Apr-16 11:58N 34°39' E 135°28'0 0.0
2018-Apr-16 11:28N 34°39' E 135°28'0 0.0
2018-Apr-16 10:58N 34°39' E 135°28'0 0.0
2018-Apr-16 10:28N 34°39' E 135°28'0 0.0
2018-Apr-16 09:58N 34°39' E 135°28'0 0.0
2018-Apr-16 09:28N 34°39' E 135°28'0 0.0
2018-Apr-16 08:58N 34°39' E 135°28'0 0.0
2018-Apr-16 08:28N 34°39' E 135°28'0 0.0
2018-Apr-16 07:58N 34°39' E 135°28'0 0.0
2018-Apr-16 07:28N 34°39' E 135°28'0 0.0
2018-Apr-16 06:58N 34°39' E 135°28'0 0.0
2018-Apr-16 06:28N 34°39' E 135°28'0 0.0
2018-Apr-16 05:58N 34°39' E 135°28'0 0.0
2018-Apr-16 05:28N 34°39' E 135°28'0 0.0
2018-Apr-16 04:58N 34°39' E 135°28'0 0.0
2018-Apr-16 04:28N 34°39' E 135°28'0 0.0
2018-Apr-16 03:58N 34°39' E 135°28'0 0.3
2018-Apr-16 03:28N 34°39' E 135°27'2 4.8
2018-Apr-16 03:00N 34°37' E 135°25'4 8.3
2018-Apr-16 02:29N 34°33' E 135°24'1 2.9
2018-Apr-16 01:58N 34°32' E 135°24'0 0.0
2018-Apr-16 01:28N 34°32' E 135°24'0 0.0
2018-Apr-16 01:00N 34°32' E 135°24'4 8.1
2018-Apr-16 00:29N 34°36' E 135°23'2 4.9
2018-Apr-15 23:59N 34°38' E 135°25'0 0.1
2018-Apr-15 23:29N 34°38' E 135°24'0 0.0
2018-Apr-15 22:59N 34°38' E 135°24'0 0.6
2018-Apr-15 22:30N 34°38' E 135°24'3 5.4
2018-Apr-15 21:59N 34°39' E 135°28'0 0.1
2018-Apr-15 21:29N 34°39' E 135°28'0 0.0
2018-Apr-15 21:00N 34°39' E 135°28'0 0.0
2018-Apr-15 20:26N 34°39' E 135°28'0 0.0
2018-Apr-15 19:59N 34°39' E 135°28'0 0.0
2018-Apr-15 19:26N 34°39' E 135°28'0 0.0
2018-Apr-15 18:59N 34°39' E 135°28'0 0.0
2018-Apr-15 18:30N 34°39' E 135°28'0 0.0
2018-Apr-15 17:59N 34°39' E 135°28'0 0.0
2018-Apr-15 17:26N 34°39' E 135°28'0 0.0
2018-Apr-15 16:59N 34°39' E 135°28'0 0.0
2018-Apr-15 16:29N 34°39' E 135°28'0 0.0
2018-Apr-15 15:56N 34°39' E 135°28'0 0.0
2018-Apr-15 15:30N 34°39' E 135°28'0 0.0
2018-Apr-15 14:57N 34°39' E 135°28'0 0.0
2018-Apr-15 14:26N 34°39' E 135°28'0 0.0
2018-Apr-15 13:59N 34°39' E 135°28'0 0.0
2018-Apr-15 13:26N 34°39' E 135°28'0 0.0
2018-Apr-15 12:59N 34°39' E 135°28'0 0.0
2018-Apr-15 12:27N 34°39' E 135°28'0 0.0
2018-Apr-15 11:59N 34°39' E 135°28'0 0.0
2018-Apr-15 11:26N 34°39' E 135°28'0 0.0
2018-Apr-15 10:56N 34°39' E 135°28'0 0.0
2018-Apr-15 10:30N 34°39' E 135°28'0 0.0
2018-Apr-15 10:00N 34°39' E 135°28'0 0.0
2018-Apr-15 09:29N 34°39' E 135°28'0 0.0
2018-Apr-15 09:00N 34°39' E 135°28'0 0.0
2018-Apr-15 08:29N 34°39' E 135°28'1 2.5
2018-Apr-15 08:00N 34°38' E 135°27'4 7.9
2018-Apr-15 07:31N 34°34' E 135°24'2 3.7
2018-Apr-15 07:00N 34°33' E 135°26'0 0.0
2018-Apr-15 06:30N 34°33' E 135°26'0 0.0
2018-Apr-15 06:00N 34°33' E 135°26'1 1.0
2018-Apr-15 05:30N 34°33' E 135°25'5 9.4
2018-Apr-15 05:00N 34°38' E 135°23'1 1.9
2018-Apr-15 04:28N 34°38' E 135°24'0 0.0
2018-Apr-15 03:58N 34°38' E 135°24'0 0.1
2018-Apr-15 03:28N 34°38' E 135°25'0 0.1
2018-Apr-15 02:59N 34°38' E 135°25'3 5.5
2018-Apr-15 02:30N 34°35' E 135°24'1 1.6
2018-Apr-15 01:59N 34°35' E 135°23'1 3.0
2018-Apr-15 01:30N 34°36' E 135°24'4 7.2
2018-Apr-15 01:00N 34°39' E 135°27'0 0.9
2018-Apr-15 00:29N 34°39' E 135°28'0 0.0
2018-Apr-14 23:59N 34°39' E 135°28'0 0.0
2018-Apr-14 23:29N 34°39' E 135°28'0 0.0
2018-Apr-14 22:59N 34°39' E 135°28'0 0.0
2018-Apr-14 22:29N 34°39' E 135°28'0 0.0
2018-Apr-14 21:59N 34°39' E 135°28'0 0.0
2018-Apr-14 21:29N 34°39' E 135°28'0 0.0
2018-Apr-14 20:59N 34°39' E 135°28'0 0.0
2018-Apr-14 20:29N 34°39' E 135°28'0 0.0
2018-Apr-14 19:59N 34°39' E 135°28'0 0.0
2018-Apr-14 19:29N 34°39' E 135°28'0 0.0
2018-Apr-14 18:59N 34°39' E 135°28'0 0.0
2018-Apr-14 18:29N 34°39' E 135°28'0 0.0
2018-Apr-14 17:59N 34°39' E 135°28'0 0.0
2018-Apr-14 17:29N 34°39' E 135°28'0 0.0
2018-Apr-14 16:59N 34°39' E 135°28'0 0.0
2018-Apr-14 16:29N 34°39' E 135°28'0 0.0
2018-Apr-14 15:56N 34°39' E 135°28'0 0.0
2018-Apr-14 15:29N 34°39' E 135°28'0 0.0
2018-Apr-14 14:59N 34°39' E 135°28'0 0.0
2018-Apr-14 14:29N 34°39' E 135°28'0 0.0
2018-Apr-14 13:56N 34°39' E 135°28'0 0.0
2018-Apr-14 13:29N 34°39' E 135°28'0 0.0
2018-Apr-14 12:59N 34°39' E 135°28'  
Track history (hours):
 
Tides and Currents Weather Stations Pressure Air Temp Water Temp Dewpoint Dewpoint Depression Visibility Wind Speed Wind Dir Waves Ship Positions

Shinei Maru

Last reported at 2018-Apr-24 12:29 UTC. Time now 2018-Apr-24 12:49 UTC.
Position N 34°39' E 135°28'.

Length 41 m.

Type: Tanker. MMSI: 431008799.

Date/timePositionNaut miles runAvg speedWind from/ knotsBaromVisibWave heightAir tempDewpointWater temp
2018-Apr-24 12:29N 34°39' E 135°28'0 0.0
2018-Apr-24 11:56N 34°39' E 135°28'0 0.0
2018-Apr-24 11:29N 34°39' E 135°28'0 0.0
2018-Apr-24 10:59N 34°39' E 135°28'0 0.0
2018-Apr-24 10:29N 34°39' E 135°28'0 0.0
2018-Apr-24 09:59N 34°39' E 135°28'0 0.0
2018-Apr-24 09:29N 34°39' E 135°28'0 0.0
2018-Apr-24 08:59N 34°39' E 135°28'0 0.0
2018-Apr-24 08:29N 34°39' E 135°28'0 0.0
2018-Apr-24 07:59N 34°39' E 135°28'0 0.0
2018-Apr-24 07:29N 34°39' E 135°28'0 0.0
2018-Apr-24 06:59N 34°39' E 135°28'0 0.0
2018-Apr-24 06:29N 34°39' E 135°28'0 0.0
2018-Apr-24 05:59N 34°39' E 135°28'0 0.0
2018-Apr-24 05:29N 34°39' E 135°28'1 1.6
2018-Apr-24 05:00N 34°38' E 135°27'4 8.1
2018-Apr-24 04:30N 34°35' E 135°24'2 4.6
2018-Apr-24 03:59N 34°33' E 135°26'0 0.0
2018-Apr-24 03:29N 34°33' E 135°26'0 0.0
2018-Apr-24 02:59N 34°33' E 135°26'0 0.9
2018-Apr-24 02:28N 34°33' E 135°25'3 5.5
2018-Apr-24 02:00N 34°35' E 135°24'3 5.8
2018-Apr-24 01:29N 34°38' E 135°25'0 0.0
2018-Apr-24 00:59N 34°38' E 135°25'0 0.0
2018-Apr-24 00:29N 34°38' E 135°25'1 1.5
2018-Apr-24 00:00N 34°37' E 135°25'3 6.1
2018-Apr-23 23:29N 34°34' E 135°26'0 0.0
2018-Apr-23 22:59N 34°34' E 135°26'0 0.2
2018-Apr-23 22:30N 34°34' E 135°26'1 2.5
2018-Apr-23 22:00N 34°36' E 135°25'4 7.2
2018-Apr-23 21:30N 34°39' E 135°27'0 0.7
2018-Apr-23 20:59N 34°39' E 135°28'0 0.0
2018-Apr-23 20:29N 34°39' E 135°28'0 0.0
2018-Apr-23 19:59N 34°39' E 135°28'0 0.0
2018-Apr-23 19:29N 34°39' E 135°28'0 0.0
2018-Apr-23 18:56N 34°39' E 135°28'0 0.0
2018-Apr-23 18:29N 34°39' E 135°28'0 0.0
2018-Apr-23 17:59N 34°39' E 135°28'0 0.0
2018-Apr-23 17:29N 34°39' E 135°28'0 0.0
2018-Apr-23 16:59N 34°39' E 135°28'0 0.0
2018-Apr-23 16:29N 34°39' E 135°28'0 0.0
2018-Apr-23 15:59N 34°39' E 135°28'0 0.0
2018-Apr-23 15:29N 34°39' E 135°28'0 0.0
2018-Apr-23 14:59N 34°39' E 135°28'0 0.0
2018-Apr-23 14:29N 34°39' E 135°28'0 0.0
2018-Apr-23 13:59N 34°39' E 135°28'0 0.0
2018-Apr-23 13:29N 34°39' E 135°28'0 0.0
2018-Apr-23 12:59N 34°39' E 135°28'0 0.0
2018-Apr-23 12:29N 34°39' E 135°28'0 0.0
2018-Apr-23 11:59N 34°39' E 135°28'0 0.0
2018-Apr-23 11:29N 34°39' E 135°28'0 0.0
2018-Apr-23 10:59N 34°39' E 135°28'0 0.0
2018-Apr-23 10:29N 34°39' E 135°28'0 0.0
2018-Apr-23 09:59N 34°39' E 135°28'0 0.0
2018-Apr-23 09:29N 34°39' E 135°28'0 0.0
2018-Apr-23 08:59N 34°39' E 135°28'0 0.0
2018-Apr-23 08:29N 34°39' E 135°28'0 0.0
2018-Apr-23 07:59N 34°39' E 135°28'0 0.0
2018-Apr-23 07:29N 34°39' E 135°28'0 0.0
2018-Apr-23 06:59N 34°39' E 135°28'0 0.0
2018-Apr-23 06:29N 34°39' E 135°28'0 0.0
2018-Apr-23 05:59N 34°39' E 135°28'0 0.0
2018-Apr-23 05:29N 34°39' E 135°28'0 0.0
2018-Apr-23 04:59N 34°39' E 135°28'0 0.0
2018-Apr-23 04:29N 34°39' E 135°28'0 0.0
2018-Apr-23 03:59N 34°39' E 135°28'0 0.0
2018-Apr-23 03:26N 34°39' E 135°28'0 0.0
2018-Apr-23 02:59N 34°39' E 135°28'0 0.8
2018-Apr-23 02:30N 34°39' E 135°27'5 9.4
2018-Apr-23 02:00N 34°38' E 135°21'4 8.0
2018-Apr-23 01:28N 34°37' E 135°17'0 0.0
2018-Apr-23 00:58N 34°37' E 135°17'0 0.1
2018-Apr-23 00:28N 34°37' E 135°17'0 0.0
2018-Apr-22 23:58N 34°37' E 135°17'0 0.7
2018-Apr-22 23:30N 34°37' E 135°16'0 0.0
2018-Apr-22 23:00N 34°37' E 135°16'0 0.0
2018-Apr-22 22:29N 34°37' E 135°16'3 6.8
2018-Apr-22 22:00N 34°38' E 135°20'5 9.3
2018-Apr-22 21:30N 34°39' E 135°25'2 3.3
2018-Apr-22 20:58N 34°39' E 135°28'0 0.0
2018-Apr-22 20:28N 34°39' E 135°28'0 0.0
2018-Apr-22 19:58N 34°39' E 135°28'0 0.0
2018-Apr-22 19:28N 34°39' E 135°28'0 0.0
2018-Apr-22 18:58N 34°39' E 135°28'0 0.0
2018-Apr-22 18:28N 34°39' E 135°28'0 0.0
2018-Apr-22 17:58N 34°39' E 135°28'0 0.0
2018-Apr-22 17:28N 34°39' E 135°28'0 0.0
2018-Apr-22 16:58N 34°39' E 135°28'0 0.0
2018-Apr-22 16:28N 34°39' E 135°28'0 0.0
2018-Apr-22 15:58N 34°39' E 135°28'0 0.0
2018-Apr-22 15:28N 34°39' E 135°28'0 0.0
2018-Apr-22 14:58N 34°39' E 135°28'0 0.0
2018-Apr-22 14:28N 34°39' E 135°28'0 0.0
2018-Apr-22 13:58N 34°39' E 135°28'0 0.0
2018-Apr-22 13:28N 34°39' E 135°28'0 0.0
2018-Apr-22 12:58N 34°39' E 135°28'0 0.0
2018-Apr-22 12:28N 34°39' E 135°28'0 0.0
2018-Apr-22 11:58N 34°39' E 135°28'0 0.0
2018-Apr-22 11:28N 34°39' E 135°28'0 0.0
2018-Apr-22 10:58N 34°39' E 135°28'0 0.0
2018-Apr-22 10:28N 34°39' E 135°28'0 0.0
2018-Apr-22 09:58N 34°39' E 135°28'0 0.0
2018-Apr-22 09:28N 34°39' E 135°28'0 0.0
2018-Apr-22 08:58N 34°39' E 135°28'0 0.0
2018-Apr-22 08:28N 34°39' E 135°28'0 0.0
2018-Apr-22 07:58N 34°39' E 135°28'0 0.0
2018-Apr-22 07:28N 34°39' E 135°28'0 0.0
2018-Apr-22 06:58N 34°39' E 135°28'0 0.0
2018-Apr-22 06:28N 34°39' E 135°28'0 0.0
2018-Apr-22 05:58N 34°39' E 135°28'0 0.0
2018-Apr-22 05:28N 34°39' E 135°28'0 0.0
2018-Apr-22 04:58N 34°39' E 135°28'0 0.0
2018-Apr-22 04:28N 34°39' E 135°28'0 0.0
2018-Apr-22 03:58N 34°39' E 135°28'0 0.0
2018-Apr-22 03:28N 34°39' E 135°28'0 0.0
2018-Apr-22 02:58N 34°39' E 135°28'0 0.0
2018-Apr-22 02:28N 34°39' E 135°28'0 0.0
2018-Apr-22 01:58N 34°39' E 135°28'0 0.0
2018-Apr-22 01:28N 34°39' E 135°28'0 0.0
2018-Apr-22 00:58N 34°39' E 135°28'0 0.0
2018-Apr-22 00:28N 34°39' E 135°28'0 0.0
2018-Apr-22 00:00N 34°39' E 135°28'3 6.1
2018-Apr-21 23:30N 34°36' E 135°25'2 4.0
2018-Apr-21 22:59N 34°34' E 135°26'0 0.2
2018-Apr-21 22:30N 34°34' E 135°26'2 4.7
2018-Apr-21 22:00N 34°36' E 135°24'4 8.7
2018-Apr-21 21:30N 34°37' E 135°19'5 9.5
2018-Apr-21 21:00N 34°39' E 135°13'2 4.4
2018-Apr-21 20:28N 34°41' E 135°12'0 1.0
2018-Apr-21 20:01N 34°40' E 135°12'2 4.4
2018-Apr-21 19:30N 34°39' E 135°14'5 9.3
2018-Apr-21 19:00N 34°38' E 135°19'5 9.4
2018-Apr-21 18:30N 34°39' E 135°25'2 4.1
2018-Apr-21 17:59N 34°39' E 135°28'0 0.0
2018-Apr-21 17:29N 34°39' E 135°28'0 0.0
2018-Apr-21 16:56N 34°39' E 135°28'0 0.0
2018-Apr-21 16:29N 34°39' E 135°28'0 0.0
2018-Apr-21 15:59N 34°39' E 135°28'0 0.0
2018-Apr-21 15:29N 34°39' E 135°28'0 0.0
2018-Apr-21 14:59N 34°39' E 135°28'0 0.0
2018-Apr-21 14:29N 34°39' E 135°28'0 0.0
2018-Apr-21 13:59N 34°39' E 135°28'0 0.0
2018-Apr-21 13:29N 34°39' E 135°28'0 0.0
2018-Apr-21 12:59N 34°39' E 135°28'0 0.0
2018-Apr-21 12:29N 34°39' E 135°28'0 0.0
2018-Apr-21 11:59N 34°39' E 135°28'0 0.0
2018-Apr-21 11:29N 34°39' E 135°28'0 0.0
2018-Apr-21 10:59N 34°39' E 135°28'0 0.0
2018-Apr-21 10:29N 34°39' E 135°28'0 0.0
2018-Apr-21 09:59N 34°39' E 135°28'0 0.0
2018-Apr-21 09:29N 34°39' E 135°28'0 0.0
2018-Apr-21 08:59N 34°39' E 135°28'0 0.0
2018-Apr-21 08:29N 34°39' E 135°28'0 0.0
2018-Apr-21 07:59N 34°39' E 135°28'0 0.0
2018-Apr-21 07:26N 34°39' E 135°28'0 0.0
2018-Apr-21 06:59N 34°39' E 135°28'0 0.0
2018-Apr-21 06:29N 34°39' E 135°28'0 0.0
2018-Apr-21 05:59N 34°39' E 135°28'0 0.0
2018-Apr-21 05:29N 34°39' E 135°28'0 0.0
2018-Apr-21 04:59N 34°39' E 135°28'0 0.0
2018-Apr-21 04:29N 34°39' E 135°28'0 0.0
2018-Apr-21 03:59N 34°39' E 135°28'0 0.0
2018-Apr-21 03:29N 34°39' E 135°28'0 0.0
2018-Apr-21 02:59N 34°39' E 135°28'0 0.0
2018-Apr-21 02:29N 34°39' E 135°28'0 0.0
2018-Apr-21 01:59N 34°39' E 135°28'0 0.0
2018-Apr-21 01:29N 34°39' E 135°28'0 0.0
2018-Apr-21 00:59N 34°39' E 135°28'0 0.0
2018-Apr-21 00:29N 34°39' E 135°28'0 0.0
2018-Apr-20 23:59N 34°39' E 135°28'0 0.0
2018-Apr-20 23:29N 34°39' E 135°28'0 0.0
2018-Apr-20 22:59N 34°39' E 135°28'0 0.0
2018-Apr-20 22:29N 34°39' E 135°28'0 0.0
2018-Apr-20 21:59N 34°39' E 135°28'0 0.0
2018-Apr-20 21:29N 34°39' E 135°28'0 0.0
2018-Apr-20 20:59N 34°39' E 135°28'0 0.0
2018-Apr-20 20:29N 34°39' E 135°28'0 0.0
2018-Apr-20 19:59N 34°39' E 135°28'0 0.0
2018-Apr-20 19:29N 34°39' E 135°28'0 0.0
2018-Apr-20 18:56N 34°39' E 135°28'0 0.0
2018-Apr-20 18:29N 34°39' E 135°28'0 0.0
2018-Apr-20 17:59N 34°39' E 135°28'0 0.0
2018-Apr-20 17:29N 34°39' E 135°28'0 0.0
2018-Apr-20 16:59N 34°39' E 135°28'0 0.0
2018-Apr-20 16:29N 34°39' E 135°28'0 0.0
2018-Apr-20 15:59N 34°39' E 135°28'0 0.0
2018-Apr-20 15:29N 34°39' E 135°28'0 0.0
2018-Apr-20 14:59N 34°39' E 135°28'0 0.0
2018-Apr-20 14:29N 34°39' E 135°28'0 0.0
2018-Apr-20 13:59N 34°39' E 135°28'0 0.0
2018-Apr-20 13:29N 34°39' E 135°28'0 0.0
2018-Apr-20 12:59N 34°39' E 135°28'0 0.0
2018-Apr-20 12:29N 34°39' E 135°28'0 0.0
2018-Apr-20 11:59N 34°39' E 135°28'0 0.0
2018-Apr-20 11:29N 34°39' E 135°28'0 0.0
2018-Apr-20 10:59N 34°39' E 135°28'0 0.0
2018-Apr-20 10:29N 34°39' E 135°28'0 0.0
2018-Apr-20 09:59N 34°39' E 135°28'0 0.0
2018-Apr-20 09:29N 34°39' E 135°28'0 0.0
2018-Apr-20 08:59N 34°39' E 135°28'0 0.0
2018-Apr-20 08:29N 34°39' E 135°28'0 0.1
2018-Apr-20 08:00N 34°39' E 135°28'1 1.8
2018-Apr-20 07:30N 34°38' E 135°27'4 7.7
2018-Apr-20 07:00N 34°34' E 135°26'0 0.2
2018-Apr-20 06:29N 34°34' E 135°26'0 0.0
2018-Apr-20 05:59N 34°34' E 135°26'0 0.0
2018-Apr-20 05:27N 34°34' E 135°26'4 8.5
2018-Apr-20 05:00N 34°38' E 135°25'0 0.4
2018-Apr-20 04:30N 34°38' E 135°25'0 0.0
2018-Apr-20 04:00N 34°38' E 135°25'0 0.0
2018-Apr-20 03:30N 34°38' E 135°25'3 6.6
2018-Apr-20 03:00N 34°35' E 135°24'2 4.4
2018-Apr-20 02:30N 34°33' E 135°26'0 0.0
2018-Apr-20 02:00N 34°33' E 135°26'0 0.0
2018-Apr-20 01:30N 34°33' E 135°26'3 5.5
2018-Apr-20 01:01N 34°35' E 135°24'3 5.6
2018-Apr-20 00:29N 34°38' E 135°24'0 0.0
2018-Apr-19 23:59N 34°38' E 135°24'0 0.1
2018-Apr-19 23:29N 34°38' E 135°25'0 0.1
2018-Apr-19 23:00N 34°38' E 135°25'1 1.6
2018-Apr-19 22:30N 34°38' E 135°24'3 6.2
2018-Apr-19 22:00N 34°39' E 135°27'0 0.5
2018-Apr-19 21:29N 34°39' E 135°28'0 0.0
2018-Apr-19 20:59N 34°39' E 135°28'0 0.0
2018-Apr-19 20:29N 34°39' E 135°28'0 0.0
2018-Apr-19 19:59N 34°39' E 135°28'0 0.0
2018-Apr-19 19:30N 34°39' E 135°28'0 0.0
2018-Apr-19 19:00N 34°39' E 135°28'0 0.0
2018-Apr-19 18:30N 34°39' E 135°28'0 0.0
2018-Apr-19 18:00N 34°39' E 135°28'0 0.0
2018-Apr-19 17:30N 34°39' E 135°28'0 0.0
2018-Apr-19 17:00N 34°39' E 135°28'0 0.0
2018-Apr-19 16:30N 34°39' E 135°28'0 0.0
2018-Apr-19 16:00N 34°39' E 135°28'0 0.0
2018-Apr-19 15:30N 34°39' E 135°28'0 0.0
2018-Apr-19 14:57N 34°39' E 135°28'0 0.0
2018-Apr-19 14:30N 34°39' E 135°28'0 0.0
2018-Apr-19 14:00N 34°39' E 135°28'0 0.0
2018-Apr-19 13:30N 34°39' E 135°28'0 0.0
2018-Apr-19 13:00N 34°39' E 135°28'0 0.0
2018-Apr-19 12:30N 34°39' E 135°28'0 0.0
2018-Apr-19 12:00N 34°39' E 135°28'0 0.0
2018-Apr-19 11:30N 34°39' E 135°28'0 0.0
2018-Apr-19 11:00N 34°39' E 135°28'0 0.0
2018-Apr-19 10:30N 34°39' E 135°28'0 0.0
2018-Apr-19 10:00N 34°39' E 135°28'0 0.0
2018-Apr-19 09:30N 34°39' E 135°28'0 0.0
2018-Apr-19 09:00N 34°39' E 135°28'0 0.0
2018-Apr-19 08:30N 34°39' E 135°28'0 0.0
2018-Apr-19 08:00N 34°39' E 135°28'0 0.0
2018-Apr-19 07:30N 34°39' E 135°28'0 0.0
2018-Apr-19 07:00N 34°39' E 135°28'0 0.0
2018-Apr-19 06:30N 34°39' E 135°28'0 0.0
2018-Apr-19 06:00N 34°39' E 135°28'0 0.0
2018-Apr-19 05:27N 34°39' E 135°28'0 0.0
2018-Apr-19 05:00N 34°39' E 135°28'0 0.0
2018-Apr-19 04:30N 34°39' E 135°28'0 0.0
2018-Apr-19 04:00N 34°39' E 135°28'0 0.0
2018-Apr-19 03:30N 34°39' E 135°28'2 3.6
2018-Apr-19 03:00N 34°37' E 135°26'4 8.0
2018-Apr-19 02:31N 34°34' E 135°24'2 4.2
2018-Apr-19 01:59N 34°33' E 135°27'0 0.6
2018-Apr-19 01:29N 34°33' E 135°27'0 0.6
2018-Apr-19 00:58N 34°33' E 135°27'0 0.4
2018-Apr-19 00:30N 34°33' E 135°27'3 6.0
2018-Apr-19 00:00N 34°35' E 135°24'2 3.5
2018-Apr-18 23:30N 34°34' E 135°26'1 1.2
2018-Apr-18 23:00N 34°35' E 135°25'4 8.0
2018-Apr-18 22:30N 34°39' E 135°27'0 0.5
2018-Apr-18 22:00N 34°39' E 135°27'0 0.8
2018-Apr-18 21:30N 34°39' E 135°28'0 0.0
2018-Apr-18 20:59N 34°39' E 135°28'0 0.0
2018-Apr-18 20:29N 34°39' E 135°28'0 0.0
2018-Apr-18 19:59N 34°39' E 135°28'0 0.0
2018-Apr-18 19:29N 34°39' E 135°28'0 0.0
2018-Apr-18 18:59N 34°39' E 135°28'0 0.0
2018-Apr-18 18:29N 34°39' E 135°28'0 0.0
2018-Apr-18 17:59N 34°39' E 135°28'0 0.0
2018-Apr-18 17:29N 34°39' E 135°28'0 0.0
2018-Apr-18 16:59N 34°39' E 135°28'0 0.0
2018-Apr-18 16:29N 34°39' E 135°28'0 0.0
2018-Apr-18 15:56N 34°39' E 135°28'0 0.0
2018-Apr-18 15:29N 34°39' E 135°28'0 0.0
2018-Apr-18 14:59N 34°39' E 135°28'0 0.0
2018-Apr-18 14:29N 34°39' E 135°28'0 0.0
2018-Apr-18 13:59N 34°39' E 135°28'0 0.0
2018-Apr-18 13:29N 34°39' E 135°28'0 0.0
2018-Apr-18 12:59N 34°39' E 135°28'0 0.0
2018-Apr-18 12:29N 34°39' E 135°28'0 0.0
2018-Apr-18 11:56N 34°39' E 135°28'0 0.0
2018-Apr-18 11:29N 34°39' E 135°28'0 0.0
2018-Apr-18 10:59N 34°39' E 135°28'0 0.0
2018-Apr-18 10:26N 34°39' E 135°28'0 0.0
2018-Apr-18 09:59N 34°39' E 135°28'0 0.0
2018-Apr-18 09:26N 34°39' E 135°28'0 0.0
2018-Apr-18 08:59N 34°39' E 135°28'0 0.0
2018-Apr-18 08:29N 34°39' E 135°28'0 0.0
2018-Apr-18 07:59N 34°39' E 135°28'0 0.0
2018-Apr-18 07:26N 34°39' E 135°28'0 0.0
2018-Apr-18 06:59N 34°39' E 135°28'0 0.0
2018-Apr-18 06:29N 34°39' E 135°28'0 0.0
2018-Apr-18 05:59N 34°39' E 135°28'0 0.0
2018-Apr-18 05:29N 34°39' E 135°28'0 0.0
2018-Apr-18 04:59N 34°39' E 135°28'0 0.0
2018-Apr-18 04:29N 34°39' E 135°28'0 0.0
2018-Apr-18 03:59N 34°39' E 135°28'0 0.0
2018-Apr-18 03:29N 34°39' E 135°28'0 0.0
2018-Apr-18 02:59N 34°39' E 135°28'0 0.4
2018-Apr-18 02:30N 34°38' E 135°28'0 0.0
2018-Apr-18 02:00N 34°38' E 135°28'0 0.1
2018-Apr-18 01:29N 34°39' E 135°28'0 0.3
2018-Apr-18 00:59N 34°39' E 135°28'0 0.0
2018-Apr-18 00:29N 34°39' E 135°28'0 0.0
2018-Apr-17 23:59N 34°39' E 135°28'0 0.0
2018-Apr-17 23:29N 34°39' E 135°28'0 0.0
2018-Apr-17 22:54N 34°39' E 135°28'0 0.0
2018-Apr-17 22:30N 34°39' E 135°28'0 0.0
2018-Apr-17 22:00N 34°39' E 135°28'0 0.0
2018-Apr-17 21:30N 34°39' E 135°28'0 0.0
2018-Apr-17 21:00N 34°39' E 135°28'0 0.0
2018-Apr-17 20:21N 34°39' E 135°28'0 0.0
2018-Apr-17 20:00N 34°39' E 135°28'0 0.0
2018-Apr-17 19:30N 34°39' E 135°28'0 0.0
2018-Apr-17 19:00N 34°39' E 135°28'0 0.0
2018-Apr-17 18:30N 34°39' E 135°28'0 0.0
2018-Apr-17 18:00N 34°39' E 135°28'0 0.0
2018-Apr-17 17:30N 34°39' E 135°28'0 0.0
2018-Apr-17 17:00N 34°39' E 135°28'0 0.0
2018-Apr-17 16:30N 34°39' E 135°28'0 0.0
2018-Apr-17 16:00N 34°39' E 135°28'0 0.0
2018-Apr-17 15:30N 34°39' E 135°28'0 0.0
2018-Apr-17 15:00N 34°39' E 135°28'0 0.0
2018-Apr-17 14:30N 34°39' E 135°28'0 0.0
2018-Apr-17 14:00N 34°39' E 135°28'0 0.0
2018-Apr-17 13:30N 34°39' E 135°28'0 0.0
2018-Apr-17 13:00N 34°39' E 135°28'0 0.0
2018-Apr-17 12:30N 34°39' E 135°28'0 0.0
2018-Apr-17 11:57N 34°39' E 135°28'0 0.0
2018-Apr-17 11:24N 34°39' E 135°28'0 0.0
2018-Apr-17 11:00N 34°39' E 135°28'0 0.0
2018-Apr-17 10:30N 34°39' E 135°28'0 0.0
2018-Apr-17 10:00N 34°39' E 135°28'0 0.0
2018-Apr-17 09:30N 34°39' E 135°28'0 0.0
2018-Apr-17 09:00N 34°39' E 135°28'0 0.0
2018-Apr-17 08:30N 34°39' E 135°28'0 0.0
2018-Apr-17 08:00N 34°39' E 135°28'0 0.0
2018-Apr-17 07:30N 34°39' E 135°28'0 0.0
2018-Apr-17 07:00N 34°39' E 135°28'0 0.0
2018-Apr-17 06:27N 34°39' E 135°28'0 0.0
2018-Apr-17 06:00N 34°39' E 135°28'0 0.0
2018-Apr-17 05:30N 34°39' E 135°28'0 0.0
2018-Apr-17 05:00N 34°39' E 135°28'0 0.0
2018-Apr-17 04:30N 34°39' E 135°28'0 0.0
2018-Apr-17 04:00N 34°39' E 135°28'0 0.0
2018-Apr-17 03:27N 34°39' E 135°28'0 0.0
2018-Apr-17 03:00N 34°39' E 135°28'0 0.0
2018-Apr-17 02:30N 34°39' E 135°28'0 0.0
2018-Apr-17 02:00N 34°39' E 135°28'1 2.4
2018-Apr-17 01:30N 34°38' E 135°27'4 7.6
2018-Apr-17 01:00N 34°35' E 135°23'0 0.4
2018-Apr-17 00:29N 34°35' E 135°23'0 0.0
2018-Apr-16 23:59N 34°35' E 135°23'1 2.8
2018-Apr-16 23:30N 34°36' E 135°24'4 7.4
2018-Apr-16 23:00N 34°39' E 135°27'0 0.7
2018-Apr-16 22:28N 34°39' E 135°28'0 0.0
2018-Apr-16 21:58N 34°39' E 135°28'0 0.0
2018-Apr-16 21:28N 34°39' E 135°28'0 0.0
2018-Apr-16 20:58N 34°39' E 135°28'0 0.0
2018-Apr-16 20:28N 34°39' E 135°28'0 0.0
2018-Apr-16 19:58N 34°39' E 135°28'0 0.0
2018-Apr-16 19:28N 34°39' E 135°28'0 0.0
2018-Apr-16 18:58N 34°39' E 135°28'0 0.0
2018-Apr-16 18:28N 34°39' E 135°28'0 0.0
2018-Apr-16 17:58N 34°39' E 135°28'0 0.0
2018-Apr-16 17:28N 34°39' E 135°28'0 0.0
2018-Apr-16 16:58N 34°39' E 135°28'0 0.0
2018-Apr-16 16:25N 34°39' E 135°28'0 0.0
2018-Apr-16 15:58N 34°39' E 135°28'0 0.0
2018-Apr-16 15:28N 34°39' E 135°28'0 0.0
2018-Apr-16 14:58N 34°39' E 135°28'0 0.0
2018-Apr-16 14:28N 34°39' E 135°28'0 0.0
2018-Apr-16 13:55N 34°39' E 135°28'0 0.0
2018-Apr-16 13:28N 34°39' E 135°28'0 0.0
2018-Apr-16 12:58N 34°39' E 135°28'0 0.0
2018-Apr-16 12:28N 34°39' E 135°28'0 0.0
2018-Apr-16 11:58N 34°39' E 135°28'0 0.0
2018-Apr-16 11:28N 34°39' E 135°28'0 0.0
2018-Apr-16 10:58N 34°39' E 135°28'0 0.0
2018-Apr-16 10:28N 34°39' E 135°28'0 0.0
2018-Apr-16 09:58N 34°39' E 135°28'0 0.0
2018-Apr-16 09:28N 34°39' E 135°28'0 0.0
2018-Apr-16 08:58N 34°39' E 135°28'0 0.0
2018-Apr-16 08:28N 34°39' E 135°28'0 0.0
2018-Apr-16 07:58N 34°39' E 135°28'0 0.0
2018-Apr-16 07:28N 34°39' E 135°28'0 0.0
2018-Apr-16 06:58N 34°39' E 135°28'0 0.0
2018-Apr-16 06:28N 34°39' E 135°28'0 0.0
2018-Apr-16 05:58N 34°39' E 135°28'0 0.0
2018-Apr-16 05:28N 34°39' E 135°28'0 0.0
2018-Apr-16 04:58N 34°39' E 135°28'0 0.0
2018-Apr-16 04:28N 34°39' E 135°28'0 0.0
2018-Apr-16 03:58N 34°39' E 135°28'0 0.3
2018-Apr-16 03:28N 34°39' E 135°27'2 4.8
2018-Apr-16 03:00N 34°37' E 135°25'4 8.3
2018-Apr-16 02:29N 34°33' E 135°24'1 2.9
2018-Apr-16 01:58N 34°32' E 135°24'0 0.0
2018-Apr-16 01:28N 34°32' E 135°24'0 0.0
2018-Apr-16 01:00N 34°32' E 135°24'4 8.1
2018-Apr-16 00:29N 34°36' E 135°23'2 4.9
2018-Apr-15 23:59N 34°38' E 135°25'0 0.1
2018-Apr-15 23:29N 34°38' E 135°24'0 0.0
2018-Apr-15 22:59N 34°38' E 135°24'0 0.6
2018-Apr-15 22:30N 34°38' E 135°24'3 5.4
2018-Apr-15 21:59N 34°39' E 135°28'0 0.1
2018-Apr-15 21:29N 34°39' E 135°28'0 0.0
2018-Apr-15 21:00N 34°39' E 135°28'0 0.0
2018-Apr-15 20:26N 34°39' E 135°28'0 0.0
2018-Apr-15 19:59N 34°39' E 135°28'0 0.0
2018-Apr-15 19:26N 34°39' E 135°28'0 0.0
2018-Apr-15 18:59N 34°39' E 135°28'0 0.0
2018-Apr-15 18:30N 34°39' E 135°28'0 0.0
2018-Apr-15 17:59N 34°39' E 135°28'0 0.0
2018-Apr-15 17:26N 34°39' E 135°28'0 0.0
2018-Apr-15 16:59N 34°39' E 135°28'0 0.0
2018-Apr-15 16:29N 34°39' E 135°28'0 0.0
2018-Apr-15 15:56N 34°39' E 135°28'0 0.0
2018-Apr-15 15:30N 34°39' E 135°28'0 0.0
2018-Apr-15 14:57N 34°39' E 135°28'0 0.0
2018-Apr-15 14:26N 34°39' E 135°28'0 0.0
2018-Apr-15 13:59N 34°39' E 135°28'0 0.0
2018-Apr-15 13:26N 34°39' E 135°28'0 0.0
2018-Apr-15 12:59N 34°39' E 135°28'0 0.0
2018-Apr-15 12:27N 34°39' E 135°28'0 0.0
2018-Apr-15 11:59N 34°39' E 135°28'0 0.0
2018-Apr-15 11:26N 34°39' E 135°28'0 0.0
2018-Apr-15 10:56N 34°39' E 135°28'0 0.0
2018-Apr-15 10:30N 34°39' E 135°28'0 0.0
2018-Apr-15 10:00N 34°39' E 135°28'0 0.0
2018-Apr-15 09:29N 34°39' E 135°28'0 0.0
2018-Apr-15 09:00N 34°39' E 135°28'0 0.0
2018-Apr-15 08:29N 34°39' E 135°28'1 2.5
2018-Apr-15 08:00N 34°38' E 135°27'4 7.9
2018-Apr-15 07:31N 34°34' E 135°24'2 3.7
2018-Apr-15 07:00N 34°33' E 135°26'0 0.0
2018-Apr-15 06:30N 34°33' E 135°26'0 0.0
2018-Apr-15 06:00N 34°33' E 135°26'1 1.0
2018-Apr-15 05:30N 34°33' E 135°25'5 9.4
2018-Apr-15 05:00N 34°38' E 135°23'1 1.9
2018-Apr-15 04:28N 34°38' E 135°24'0 0.0
2018-Apr-15 03:58N 34°38' E 135°24'0 0.1
2018-Apr-15 03:28N 34°38' E 135°25'0 0.1
2018-Apr-15 02:59N 34°38' E 135°25'3 5.5
2018-Apr-15 02:30N 34°35' E 135°24'1 1.6
2018-Apr-15 01:59N 34°35' E 135°23'1 3.0
2018-Apr-15 01:30N 34°36' E 135°24'4 7.2
2018-Apr-15 01:00N 34°39' E 135°27'0 0.9
2018-Apr-15 00:29N 34°39' E 135°28'0 0.0
2018-Apr-14 23:59N 34°39' E 135°28'0 0.0
2018-Apr-14 23:29N 34°39' E 135°28'0 0.0
2018-Apr-14 22:59N 34°39' E 135°28'0 0.0
2018-Apr-14 22:29N 34°39' E 135°28'0 0.0
2018-Apr-14 21:59N 34°39' E 135°28'0 0.0
2018-Apr-14 21:29N 34°39' E 135°28'0 0.0
2018-Apr-14 20:59N 34°39' E 135°28'0 0.0
2018-Apr-14 20:29N 34°39' E 135°28'0 0.0
2018-Apr-14 19:59N 34°39' E 135°28'0 0.0
2018-Apr-14 19:29N 34°39' E 135°28'0 0.0
2018-Apr-14 18:59N 34°39' E 135°28'0 0.0
2018-Apr-14 18:29N 34°39' E 135°28'0 0.0
2018-Apr-14 17:59N 34°39' E 135°28'0 0.0
2018-Apr-14 17:29N 34°39' E 135°28'0 0.0
2018-Apr-14 16:59N 34°39' E 135°28'0 0.0
2018-Apr-14 16:29N 34°39' E 135°28'0 0.0
2018-Apr-14 15:56N 34°39' E 135°28'0 0.0
2018-Apr-14 15:29N 34°39' E 135°28'0 0.0
2018-Apr-14 14:59N 34°39' E 135°28'0 0.0
2018-Apr-14 14:29N 34°39' E 135°28'0 0.0
2018-Apr-14 13:56N 34°39' E 135°28'0 0.0
2018-Apr-14 13:29N 34°39' E 135°28'0 0.0
2018-Apr-14 12:59N 34°39' E 135°28'  

Dump ship's entire track history